sensor_id;sensor_type;location;lat;lon;timestamp;temperature;humidity
29281;DHT22;25048;49.590;11.026;2024-03-02T00:01:19;4.80;99.90
29281;DHT22;25048;49.590;11.026;2024-03-02T00:03:47;4.80;99.90
29281;DHT22;25048;49.590;11.026;2024-03-02T00:06:15;4.80;99.90
29281;DHT22;25048;49.590;11.026;2024-03-02T00:08:44;4.80;99.90
29281;DHT22;25048;49.590;11.026;2024-03-02T00:11:12;4.90;99.90
29281;DHT22;25048;49.590;11.026;2024-03-02T00:13:41;4.90;99.90
29281;DHT22;25048;49.590;11.026;2024-03-02T00:16:09;4.90;99.90
29281;DHT22;25048;49.590;11.026;2024-03-02T00:18:37;4.90;99.90
29281;DHT22;25048;49.590;11.026;2024-03-02T00:21:06;4.90;99.90
29281;DHT22;25048;49.590;11.026;2024-03-02T00:23:37;5.00;99.90
29281;DHT22;25048;49.590;11.026;2024-03-02T00:26:06;5.00;99.90
29281;DHT22;25048;49.590;11.026;2024-03-02T00:28:36;5.10;99.90
29281;DHT22;25048;49.590;11.026;2024-03-02T00:31:12;5.00;99.90
29281;DHT22;25048;49.590;11.026;2024-03-02T00:33:45;5.10;99.90
29281;DHT22;25048;49.590;11.026;2024-03-02T00:36:15;5.10;99.90
29281;DHT22;25048;49.590;11.026;2024-03-02T00:38:46;5.20;99.90
29281;DHT22;25048;49.590;11.026;2024-03-02T00:41:27;5.20;99.90
29281;DHT22;25048;49.590;11.026;2024-03-02T00:43:57;5.20;99.90
29281;DHT22;25048;49.590;11.026;2024-03-02T00:46:24;5.20;99.90
29281;DHT22;25048;49.590;11.026;2024-03-02T00:48:57;5.20;99.90
29281;DHT22;25048;49.590;11.026;2024-03-02T00:51:26;5.20;99.90
29281;DHT22;25048;49.590;11.026;2024-03-02T00:53:57;5.20;99.90
29281;DHT22;25048;49.590;11.026;2024-03-02T00:56:25;5.20;99.90
29281;DHT22;25048;49.590;11.026;2024-03-02T00:58:53;5.20;99.90
29281;DHT22;25048;49.590;11.026;2024-03-02T01:01:21;5.20;99.90
29281;DHT22;25048;49.590;11.026;2024-03-02T01:03:49;5.20;99.90
29281;DHT22;25048;49.590;11.026;2024-03-02T01:06:17;5.20;99.90
29281;DHT22;25048;49.590;11.026;2024-03-02T01:08:45;5.10;99.90
29281;DHT22;25048;49.590;11.026;2024-03-02T01:11:13;5.10;99.90
29281;DHT22;25048;49.590;11.026;2024-03-02T01:13:41;5.10;99.90
29281;DHT22;25048;49.590;11.026;2024-03-02T01:16:08;5.10;99.90
29281;DHT22;25048;49.590;11.026;2024-03-02T01:18:36;5.10;99.90
29281;DHT22;25048;49.590;11.026;2024-03-02T01:21:04;5.00;99.90
29281;DHT22;25048;49.590;11.026;2024-03-02T01:23:31;5.00;99.90
29281;DHT22;25048;49.590;11.026;2024-03-02T01:25:59;5.00;99.90
29281;DHT22;25048;49.590;11.026;2024-03-02T01:28:26;5.00;99.90
29281;DHT22;25048;49.590;11.026;2024-03-02T01:30:54;4.90;99.90
29281;DHT22;25048;49.590;11.026;2024-03-02T01:33:21;4.90;99.90
29281;DHT22;25048;49.590;11.026;2024-03-02T01:35:49;4.90;99.90
29281;DHT22;25048;49.590;11.026;2024-03-02T01:38:17;4.80;99.90
29281;DHT22;25048;49.590;11.026;2024-03-02T01:40:44;4.80;99.90
29281;DHT22;25048;49.590;11.026;2024-03-02T01:43:12;4.80;99.90
29281;DHT22;25048;49.590;11.026;2024-03-02T01:45:40;4.70;99.90
29281;DHT22;25048;49.590;11.026;2024-03-02T01:48:07;4.70;99.90
29281;DHT22;25048;49.590;11.026;2024-03-02T01:50:35;4.70;99.90
29281;DHT22;25048;49.590;11.026;2024-03-02T01:53:03;4.70;99.90
29281;DHT22;25048;49.590;11.026;2024-03-02T01:55:31;4.70;99.90
29281;DHT22;25048;49.590;11.026;2024-03-02T01:57:59;4.70;99.90
29281;DHT22;25048;49.590;11.026;2024-03-02T02:00:27;4.70;99.90
29281;DHT22;25048;49.590;11.026;2024-03-02T02:02:55;4.60;99.90
29281;DHT22;25048;49.590;11.026;2024-03-02T02:05:24;4.70;99.90
29281;DHT22;25048;49.590;11.026;2024-03-02T02:07:51;4.70;99.90
29281;DHT22;25048;49.590;11.026;2024-03-02T02:10:19;4.60;99.90
29281;DHT22;25048;49.590;11.026;2024-03-02T02:12:47;4.60;99.90
29281;DHT22;25048;49.590;11.026;2024-03-02T02:15:28;4.60;99.90
29281;DHT22;25048;49.590;11.026;2024-03-02T02:17:56;4.60;99.90
29281;DHT22;25048;49.590;11.026;2024-03-02T02:20:25;4.60;99.90
29281;DHT22;25048;49.590;11.026;2024-03-02T02:23:05;4.60;99.90
29281;DHT22;25048;49.590;11.026;2024-03-02T02:25:34;4.50;99.90
29281;DHT22;25048;49.590;11.026;2024-03-02T02:28:02;4.50;99.90
29281;DHT22;25048;49.590;11.026;2024-03-02T02:30:31;4.50;99.90
29281;DHT22;25048;49.590;11.026;2024-03-02T02:32:59;4.50;99.90
29281;DHT22;25048;49.590;11.026;2024-03-02T02:35:26;4.50;99.90
29281;DHT22;25048;49.590;11.026;2024-03-02T02:37:55;4.50;99.90
29281;DHT22;25048;49.590;11.026;2024-03-02T02:40:25;4.60;99.90
29281;DHT22;25048;49.590;11.026;2024-03-02T02:42:53;4.60;99.90
29281;DHT22;25048;49.590;11.026;2024-03-02T02:45:20;4.60;99.90
29281;DHT22;25048;49.590;11.026;2024-03-02T02:47:48;4.60;99.90
29281;DHT22;25048;49.590;11.026;2024-03-02T02:50:15;4.60;99.90
29281;DHT22;25048;49.590;11.026;2024-03-02T02:52:43;4.70;99.90
29281;DHT22;25048;49.590;11.026;2024-03-02T02:55:12;4.70;99.90
29281;DHT22;25048;49.590;11.026;2024-03-02T02:57:41;4.70;99.90
29281;DHT22;25048;49.590;11.026;2024-03-02T03:00:12;4.70;99.90
29281;DHT22;25048;49.590;11.026;2024-03-02T03:02:45;4.70;99.90
29281;DHT22;25048;49.590;11.026;2024-03-02T03:05:14;4.70;99.90
29281;DHT22;25048;49.590;11.026;2024-03-02T03:07:42;4.70;99.90
29281;DHT22;25048;49.590;11.026;2024-03-02T03:10:11;4.70;99.90
29281;DHT22;25048;49.590;11.026;2024-03-02T03:12:39;4.80;99.90
29281;DHT22;25048;49.590;11.026;2024-03-02T03:15:09;4.90;99.90
29281;DHT22;25048;49.590;11.026;2024-03-02T03:17:38;5.00;99.90
29281;DHT22;25048;49.590;11.026;2024-03-02T03:20:06;5.00;99.90
29281;DHT22;25048;49.590;11.026;2024-03-02T03:22:36;5.10;99.90
29281;DHT22;25048;49.590;11.026;2024-03-02T03:25:04;5.10;99.90
29281;DHT22;25048;49.590;11.026;2024-03-02T03:27:32;5.10;99.90
29281;DHT22;25048;49.590;11.026;2024-03-02T03:29:59;5.10;99.90
29281;DHT22;25048;49.590;11.026;2024-03-02T03:32:27;5.10;99.90
29281;DHT22;25048;49.590;11.026;2024-03-02T03:34:54;5.20;99.90
29281;DHT22;25048;49.590;11.026;2024-03-02T03:37:22;5.20;99.90
29281;DHT22;25048;49.590;11.026;2024-03-02T03:39:50;5.20;99.90
29281;DHT22;25048;49.590;11.026;2024-03-02T03:42:18;5.20;99.90
29281;DHT22;25048;49.590;11.026;2024-03-02T03:44:45;5.30;99.90
29281;DHT22;25048;49.590;11.026;2024-03-02T03:47:13;5.20;99.90
29281;DHT22;25048;49.590;11.026;2024-03-02T03:49:41;5.20;99.90
29281;DHT22;25048;49.590;11.026;2024-03-02T03:52:08;5.30;99.90
29281;DHT22;25048;49.590;11.026;2024-03-02T03:54:35;5.30;99.90
29281;DHT22;25048;49.590;11.026;2024-03-02T03:57:05;5.30;99.90
29281;DHT22;25048;49.590;11.026;2024-03-02T03:59:32;5.30;99.90
29281;DHT22;25048;49.590;11.026;2024-03-02T04:02:00;5.30;99.90
29281;DHT22;25048;49.590;11.026;2024-03-02T04:04:29;5.30;99.90
29281;DHT22;25048;49.590;11.026;2024-03-02T04:06:56;5.30;99.90
29281;DHT22;25048;49.590;11.026;2024-03-02T04:09:24;5.20;99.90
29281;DHT22;25048;49.590;11.026;2024-03-02T04:11:52;5.20;99.90
29281;DHT22;25048;49.590;11.026;2024-03-02T04:14:20;5.20;99.90
29281;DHT22;25048;49.590;11.026;2024-03-02T04:16:48;5.20;99.90
29281;DHT22;25048;49.590;11.026;2024-03-02T04:19:15;5.10;99.90
29281;DHT22;25048;49.590;11.026;2024-03-02T04:21:43;5.10;99.90
29281;DHT22;25048;49.590;11.026;2024-03-02T04:24:10;5.10;99.90
29281;DHT22;25048;49.590;11.026;2024-03-02T04:26:38;5.00;99.90
29281;DHT22;25048;49.590;11.026;2024-03-02T04:29:06;5.00;99.90
29281;DHT22;25048;49.590;11.026;2024-03-02T04:31:33;4.90;99.90
29281;DHT22;25048;49.590;11.026;2024-03-02T04:34:01;4.90;99.90
29281;DHT22;25048;49.590;11.026;2024-03-02T04:36:28;4.90;99.90
29281;DHT22;25048;49.590;11.026;2024-03-02T04:38:56;4.90;99.90
29281;DHT22;25048;49.590;11.026;2024-03-02T04:41:23;4.90;99.90
29281;DHT22;25048;49.590;11.026;2024-03-02T04:43:51;4.90;99.90
29281;DHT22;25048;49.590;11.026;2024-03-02T04:46:19;4.80;99.90
29281;DHT22;25048;49.590;11.026;2024-03-02T04:48:46;4.80;99.90
29281;DHT22;25048;49.590;11.026;2024-03-02T04:51:15;4.80;99.90
29281;DHT22;25048;49.590;11.026;2024-03-02T04:53:42;4.80;99.90
29281;DHT22;25048;49.590;11.026;2024-03-02T04:56:10;4.80;99.90
29281;DHT22;25048;49.590;11.026;2024-03-02T04:58:51;4.70;99.90
29281;DHT22;25048;49.590;11.026;2024-03-02T05:01:18;4.70;99.90
29281;DHT22;25048;49.590;11.026;2024-03-02T05:03:46;4.70;99.90
29281;DHT22;25048;49.590;11.026;2024-03-02T05:06:13;4.70;99.90
29281;DHT22;25048;49.590;11.026;2024-03-02T05:08:41;4.60;99.90
29281;DHT22;25048;49.590;11.026;2024-03-02T05:11:08;4.60;99.90
29281;DHT22;25048;49.590;11.026;2024-03-02T05:13:53;4.60;99.90
29281;DHT22;25048;49.590;11.026;2024-03-02T05:16:21;4.60;99.90
29281;DHT22;25048;49.590;11.026;2024-03-02T05:18:48;4.60;99.90
29281;DHT22;25048;49.590;11.026;2024-03-02T05:21:16;4.60;99.90
29281;DHT22;25048;49.590;11.026;2024-03-02T05:23:43;4.50;99.90
29281;DHT22;25048;49.590;11.026;2024-03-02T05:26:11;4.60;99.90
29281;DHT22;25048;49.590;11.026;2024-03-02T05:28:40;4.60;99.90
29281;DHT22;25048;49.590;11.026;2024-03-02T05:31:13;4.50;99.90
29281;DHT22;25048;49.590;11.026;2024-03-02T05:33:41;4.50;99.90
29281;DHT22;25048;49.590;11.026;2024-03-02T05:36:09;4.50;99.90
29281;DHT22;25048;49.590;11.026;2024-03-02T05:38:37;4.50;99.90
29281;DHT22;25048;49.590;11.026;2024-03-02T05:41:05;4.50;99.90
29281;DHT22;25048;49.590;11.026;2024-03-02T05:43:32;4.60;99.90
29281;DHT22;25048;49.590;11.026;2024-03-02T05:46:00;4.60;99.90
29281;DHT22;25048;49.590;11.026;2024-03-02T05:48:27;4.60;99.90
29281;DHT22;25048;49.590;11.026;2024-03-02T05:50:55;4.60;99.90
29281;DHT22;25048;49.590;11.026;2024-03-02T05:53:23;4.60;99.90
29281;DHT22;25048;49.590;11.026;2024-03-02T05:55:50;4.60;99.90
29281;DHT22;25048;49.590;11.026;2024-03-02T05:58:19;4.50;99.90
29281;DHT22;25048;49.590;11.026;2024-03-02T06:01:05;4.50;99.90
29281;DHT22;25048;49.590;11.026;2024-03-02T06:03:32;4.50;99.90
29281;DHT22;25048;49.590;11.026;2024-03-02T06:06:00;4.50;99.90
29281;DHT22;25048;49.590;11.026;2024-03-02T06:08:27;4.50;99.90
29281;DHT22;25048;49.590;11.026;2024-03-02T06:10:55;4.50;99.90
29281;DHT22;25048;49.590;11.026;2024-03-02T06:13:23;4.40;99.90
29281;DHT22;25048;49.590;11.026;2024-03-02T06:15:52;4.40;99.90
29281;DHT22;25048;49.590;11.026;2024-03-02T06:18:19;4.40;99.90
29281;DHT22;25048;49.590;11.026;2024-03-02T06:20:47;4.40;99.90
29281;DHT22;25048;49.590;11.026;2024-03-02T06:23:15;4.40;99.90
29281;DHT22;25048;49.590;11.026;2024-03-02T06:25:43;4.40;99.90
29281;DHT22;25048;49.590;11.026;2024-03-02T06:28:10;4.40;99.90
29281;DHT22;25048;49.590;11.026;2024-03-02T06:30:38;4.40;99.90
29281;DHT22;25048;49.590;11.026;2024-03-02T06:33:05;4.40;99.90
29281;DHT22;25048;49.590;11.026;2024-03-02T06:35:33;4.50;99.90
29281;DHT22;25048;49.590;11.026;2024-03-02T06:38:01;4.50;99.90
29281;DHT22;25048;49.590;11.026;2024-03-02T06:40:29;4.60;99.90
29281;DHT22;25048;49.590;11.026;2024-03-02T06:42:56;4.60;99.90
29281;DHT22;25048;49.590;11.026;2024-03-02T06:45:24;4.50;99.90
29281;DHT22;25048;49.590;11.026;2024-03-02T06:47:51;4.60;99.90
29281;DHT22;25048;49.590;11.026;2024-03-02T06:50:19;4.60;99.90
29281;DHT22;25048;49.590;11.026;2024-03-02T06:52:46;4.60;99.90
29281;DHT22;25048;49.590;11.026;2024-03-02T06:55:14;4.60;99.90
29281;DHT22;25048;49.590;11.026;2024-03-02T06:57:42;4.60;99.90
29281;DHT22;25048;49.590;11.026;2024-03-02T07:00:11;4.70;99.90
29281;DHT22;25048;49.590;11.026;2024-03-02T07:02:39;4.80;99.90
29281;DHT22;25048;49.590;11.026;2024-03-02T07:05:08;4.90;99.90
29281;DHT22;25048;49.590;11.026;2024-03-02T07:07:36;4.90;99.90
29281;DHT22;25048;49.590;11.026;2024-03-02T07:10:04;5.10;99.90
29281;DHT22;25048;49.590;11.026;2024-03-02T07:12:33;5.20;99.90
29281;DHT22;25048;49.590;11.026;2024-03-02T07:15:01;5.40;99.90
29281;DHT22;25048;49.590;11.026;2024-03-02T07:17:31;5.50;99.90
29281;DHT22;25048;49.590;11.026;2024-03-02T07:19:59;5.60;99.90
29281;DHT22;25048;49.590;11.026;2024-03-02T07:22:26;5.70;99.90
29281;DHT22;25048;49.590;11.026;2024-03-02T07:24:54;5.90;99.90
29281;DHT22;25048;49.590;11.026;2024-03-02T07:27:22;6.10;99.90
29281;DHT22;25048;49.590;11.026;2024-03-02T07:29:49;6.30;99.90
29281;DHT22;25048;49.590;11.026;2024-03-02T07:32:17;6.60;99.90
29281;DHT22;25048;49.590;11.026;2024-03-02T07:34:44;6.90;99.90
29281;DHT22;25048;49.590;11.026;2024-03-02T07:37:12;7.10;99.90
29281;DHT22;25048;49.590;11.026;2024-03-02T07:39:39;7.20;99.90
29281;DHT22;25048;49.590;11.026;2024-03-02T07:42:07;7.30;99.90
29281;DHT22;25048;49.590;11.026;2024-03-02T07:44:35;7.30;99.90
29281;DHT22;25048;49.590;11.026;2024-03-02T07:47:02;7.30;99.90
29281;DHT22;25048;49.590;11.026;2024-03-02T07:49:30;7.40;99.90
29281;DHT22;25048;49.590;11.026;2024-03-02T07:51:58;7.50;99.90
29281;DHT22;25048;49.590;11.026;2024-03-02T07:54:25;7.60;99.90
29281;DHT22;25048;49.590;11.026;2024-03-02T07:56:53;7.60;99.90
29281;DHT22;25048;49.590;11.026;2024-03-02T07:59:20;7.80;99.90
29281;DHT22;25048;49.590;11.026;2024-03-02T08:01:49;7.80;99.90
29281;DHT22;25048;49.590;11.026;2024-03-02T08:04:21;8.00;99.90
29281;DHT22;25048;49.590;11.026;2024-03-02T08:06:49;8.00;99.90
29281;DHT22;25048;49.590;11.026;2024-03-02T08:09:17;8.10;99.90
29281;DHT22;25048;49.590;11.026;2024-03-02T08:11:44;8.10;99.90
29281;DHT22;25048;49.590;11.026;2024-03-02T08:14:12;8.20;99.90
29281;DHT22;25048;49.590;11.026;2024-03-02T08:16:40;8.20;99.90
29281;DHT22;25048;49.590;11.026;2024-03-02T08:19:08;8.30;99.90
29281;DHT22;25048;49.590;11.026;2024-03-02T08:21:36;8.40;99.90
29281;DHT22;25048;49.590;11.026;2024-03-02T08:24:04;8.40;99.90
29281;DHT22;25048;49.590;11.026;2024-03-02T08:26:32;8.50;99.90
29281;DHT22;25048;49.590;11.026;2024-03-02T08:29:00;8.60;99.90
29281;DHT22;25048;49.590;11.026;2024-03-02T08:31:31;8.60;99.90
29281;DHT22;25048;49.590;11.026;2024-03-02T08:33:58;8.70;99.90
29281;DHT22;25048;49.590;11.026;2024-03-02T08:36:27;8.70;99.90
29281;DHT22;25048;49.590;11.026;2024-03-02T08:38:54;8.80;99.90
29281;DHT22;25048;49.590;11.026;2024-03-02T08:41:22;8.90;99.90
29281;DHT22;25048;49.590;11.026;2024-03-02T08:43:49;8.90;99.90
29281;DHT22;25048;49.590;11.026;2024-03-02T08:46:17;8.90;99.90
29281;DHT22;25048;49.590;11.026;2024-03-02T08:48:44;8.90;99.90
29281;DHT22;25048;49.590;11.026;2024-03-02T08:51:12;9.10;99.90
29281;DHT22;25048;49.590;11.026;2024-03-02T08:53:40;9.20;99.90
29281;DHT22;25048;49.590;11.026;2024-03-02T08:56:07;9.40;99.90
29281;DHT22;25048;49.590;11.026;2024-03-02T08:58:35;9.50;99.90
29281;DHT22;25048;49.590;11.026;2024-03-02T09:01:02;9.60;99.90
29281;DHT22;25048;49.590;11.026;2024-03-02T09:03:30;9.70;99.90
29281;DHT22;25048;49.590;11.026;2024-03-02T09:05:59;9.80;99.90
29281;DHT22;25048;49.590;11.026;2024-03-02T09:08:27;10.00;99.90
29281;DHT22;25048;49.590;11.026;2024-03-02T09:10:55;10.00;99.90
29281;DHT22;25048;49.590;11.026;2024-03-02T09:13:23;10.10;99.90
29281;DHT22;25048;49.590;11.026;2024-03-02T09:15:51;10.20;99.90
29281;DHT22;25048;49.590;11.026;2024-03-02T09:18:18;10.20;99.90
29281;DHT22;25048;49.590;11.026;2024-03-02T09:20:46;10.30;99.90
29281;DHT22;25048;49.590;11.026;2024-03-02T09:23:13;10.30;99.90
29281;DHT22;25048;49.590;11.026;2024-03-02T09:25:41;10.30;99.90
29281;DHT22;25048;49.590;11.026;2024-03-02T09:28:09;10.40;99.90
29281;DHT22;25048;49.590;11.026;2024-03-02T09:30:37;10.50;99.90
29281;DHT22;25048;49.590;11.026;2024-03-02T09:33:05;10.60;99.90
29281;DHT22;25048;49.590;11.026;2024-03-02T09:35:32;10.80;99.90
29281;DHT22;25048;49.590;11.026;2024-03-02T09:38:00;11.00;99.90
29281;DHT22;25048;49.590;11.026;2024-03-02T09:40:27;11.20;99.90
29281;DHT22;25048;49.590;11.026;2024-03-02T09:42:55;11.30;99.90
29281;DHT22;25048;49.590;11.026;2024-03-02T09:45:25;11.50;99.90
29281;DHT22;25048;49.590;11.026;2024-03-02T09:47:53;11.50;99.90
29281;DHT22;25048;49.590;11.026;2024-03-02T09:50:21;11.60;99.90
29281;DHT22;25048;49.590;11.026;2024-03-02T09:52:49;11.70;99.90
29281;DHT22;25048;49.590;11.026;2024-03-02T09:55:18;11.60;99.90
29281;DHT22;25048;49.590;11.026;2024-03-02T09:57:46;11.50;99.90
29281;DHT22;25048;49.590;11.026;2024-03-02T10:00:16;11.60;99.90
29281;DHT22;25048;49.590;11.026;2024-03-02T10:02:43;11.60;99.90
29281;DHT22;25048;49.590;11.026;2024-03-02T10:05:13;11.70;99.90
29281;DHT22;25048;49.590;11.026;2024-03-02T10:07:41;11.80;99.90
29281;DHT22;25048;49.590;11.026;2024-03-02T10:10:15;11.90;99.90
29281;DHT22;25048;49.590;11.026;2024-03-02T10:12:43;12.00;99.90
29281;DHT22;25048;49.590;11.026;2024-03-02T10:15:10;12.20;99.90
29281;DHT22;25048;49.590;11.026;2024-03-02T10:17:38;12.40;99.90
29281;DHT22;25048;49.590;11.026;2024-03-02T10:20:25;12.60;99.90
29281;DHT22;25048;49.590;11.026;2024-03-02T10:22:55;12.40;99.90
29281;DHT22;25048;49.590;11.026;2024-03-02T10:25:31;12.50;99.90
29281;DHT22;25048;49.590;11.026;2024-03-02T10:28:00;12.60;99.90
29281;DHT22;25048;49.590;11.026;2024-03-02T10:30:28;12.70;99.90
29281;DHT22;25048;49.590;11.026;2024-03-02T10:32:56;12.60;99.90
29281;DHT22;25048;49.590;11.026;2024-03-02T10:35:24;12.70;99.90
29281;DHT22;25048;49.590;11.026;2024-03-02T10:37:55;12.80;99.90
29281;DHT22;25048;49.590;11.026;2024-03-02T10:40:23;12.90;99.90
29281;DHT22;25048;49.590;11.026;2024-03-02T10:42:51;13.00;99.90
29281;DHT22;25048;49.590;11.026;2024-03-02T10:45:20;13.20;99.90
29281;DHT22;25048;49.590;11.026;2024-03-02T10:47:50;13.40;99.90
29281;DHT22;25048;49.590;11.026;2024-03-02T10:50:18;13.40;99.90
29281;DHT22;25048;49.590;11.026;2024-03-02T10:52:45;13.50;99.90
29281;DHT22;25048;49.590;11.026;2024-03-02T10:55:13;13.60;99.90
29281;DHT22;25048;49.590;11.026;2024-03-02T10:57:51;13.70;99.90
29281;DHT22;25048;49.590;11.026;2024-03-02T11:00:20;13.70;99.90
29281;DHT22;25048;49.590;11.026;2024-03-02T11:02:58;13.80;99.90
29281;DHT22;25048;49.590;11.026;2024-03-02T11:05:34;13.90;99.90
29281;DHT22;25048;49.590;11.026;2024-03-02T11:08:13;14.00;99.90
29281;DHT22;25048;49.590;11.026;2024-03-02T11:10:48;14.20;99.90
29281;DHT22;25048;49.590;11.026;2024-03-02T11:13:12;14.20;99.90
29281;DHT22;25048;49.590;11.026;2024-03-02T11:15:44;14.30;99.90
29281;DHT22;25048;49.590;11.026;2024-03-02T11:18:12;14.30;99.90
29281;DHT22;25048;49.590;11.026;2024-03-02T11:20:41;14.20;99.90
29281;DHT22;25048;49.590;11.026;2024-03-02T11:23:10;14.10;99.90
29281;DHT22;25048;49.590;11.026;2024-03-02T11:25:37;13.90;99.90
29281;DHT22;25048;49.590;11.026;2024-03-02T11:28:06;13.90;99.90
29281;DHT22;25048;49.590;11.026;2024-03-02T11:33:08;14.00;99.90
29281;DHT22;25048;49.590;11.026;2024-03-02T11:35:37;13.90;99.90
29281;DHT22;25048;49.590;11.026;2024-03-02T11:38:07;14.00;99.90
29281;DHT22;25048;49.590;11.026;2024-03-02T11:40:34;14.00;99.90
29281;DHT22;25048;49.590;11.026;2024-03-02T11:43:02;13.90;99.90
29281;DHT22;25048;49.590;11.026;2024-03-02T11:45:29;13.90;99.90
29281;DHT22;25048;49.590;11.026;2024-03-02T11:48:00;14.00;99.90
29281;DHT22;25048;49.590;11.026;2024-03-02T11:50:34;14.00;99.90
29281;DHT22;25048;49.590;11.026;2024-03-02T11:53:09;14.20;99.90
29281;DHT22;25048;49.590;11.026;2024-03-02T11:55:39;14.10;99.90
29281;DHT22;25048;49.590;11.026;2024-03-02T11:58:08;14.10;99.90
29281;DHT22;25048;49.590;11.026;2024-03-02T12:00:35;14.10;99.90
29281;DHT22;25048;49.590;11.026;2024-03-02T12:03:07;14.30;99.90
29281;DHT22;25048;49.590;11.026;2024-03-02T12:05:36;14.40;99.90
29281;DHT22;25048;49.590;11.026;2024-03-02T12:08:05;14.40;99.90
29281;DHT22;25048;49.590;11.026;2024-03-02T12:10:36;14.50;99.90
29281;DHT22;25048;49.590;11.026;2024-03-02T12:13:06;14.60;99.90
29281;DHT22;25048;49.590;11.026;2024-03-02T12:15:37;14.70;99.90
29281;DHT22;25048;49.590;11.026;2024-03-02T12:18:05;14.80;99.90
29281;DHT22;25048;49.590;11.026;2024-03-02T12:20:34;14.80;99.90
29281;DHT22;25048;49.590;11.026;2024-03-02T12:23:02;14.80;99.90
29281;DHT22;25048;49.590;11.026;2024-03-02T12:25:32;14.90;99.90
29281;DHT22;25048;49.590;11.026;2024-03-02T12:28:01;14.90;99.90
29281;DHT22;25048;49.590;11.026;2024-03-02T12:30:35;14.90;99.90
29281;DHT22;25048;49.590;11.026;2024-03-02T12:33:03;15.00;99.90
29281;DHT22;25048;49.590;11.026;2024-03-02T12:35:30;14.90;99.90
29281;DHT22;25048;49.590;11.026;2024-03-02T12:37:58;15.00;99.90
29281;DHT22;25048;49.590;11.026;2024-03-02T12:40:25;15.00;99.90
29281;DHT22;25048;49.590;11.026;2024-03-02T12:42:53;15.10;99.90
29281;DHT22;25048;49.590;11.026;2024-03-02T12:45:21;15.10;99.90
29281;DHT22;25048;49.590;11.026;2024-03-02T12:47:52;14.90;99.90
29281;DHT22;25048;49.590;11.026;2024-03-02T12:50:20;14.80;99.90
29281;DHT22;25048;49.590;11.026;2024-03-02T12:52:53;14.80;99.90
29281;DHT22;25048;49.590;11.026;2024-03-02T12:55:22;14.70;99.90
29281;DHT22;25048;49.590;11.026;2024-03-02T12:57:51;14.80;99.90
29281;DHT22;25048;49.590;11.026;2024-03-02T13:00:19;14.70;99.90
29281;DHT22;25048;49.590;11.026;2024-03-02T13:02:47;14.70;99.90
29281;DHT22;25048;49.590;11.026;2024-03-02T13:05:17;14.60;99.90
29281;DHT22;25048;49.590;11.026;2024-03-02T13:07:50;14.60;99.90
29281;DHT22;25048;49.590;11.026;2024-03-02T13:10:17;14.80;99.90
29281;DHT22;25048;49.590;11.026;2024-03-02T13:12:45;15.00;99.90
29281;DHT22;25048;49.590;11.026;2024-03-02T13:15:13;15.20;99.90
29281;DHT22;25048;49.590;11.026;2024-03-02T13:17:40;15.20;99.90
29281;DHT22;25048;49.590;11.026;2024-03-02T13:20:08;15.40;99.90
29281;DHT22;25048;49.590;11.026;2024-03-02T13:22:37;15.60;99.90
29281;DHT22;25048;49.590;11.026;2024-03-02T13:25:05;16.00;99.90
29281;DHT22;25048;49.590;11.026;2024-03-02T13:27:34;16.20;99.90
29281;DHT22;25048;49.590;11.026;2024-03-02T13:30:05;16.50;99.90
29281;DHT22;25048;49.590;11.026;2024-03-02T13:32:35;16.60;99.90
29281;DHT22;25048;49.590;11.026;2024-03-02T13:35:02;16.50;99.90
29281;DHT22;25048;49.590;11.026;2024-03-02T13:37:30;16.40;99.90
29281;DHT22;25048;49.590;11.026;2024-03-02T13:39:57;16.60;99.90
29281;DHT22;25048;49.590;11.026;2024-03-02T13:42:25;16.60;99.90
29281;DHT22;25048;49.590;11.026;2024-03-02T13:44:53;16.70;99.90
29281;DHT22;25048;49.590;11.026;2024-03-02T13:47:21;17.00;99.90
29281;DHT22;25048;49.590;11.026;2024-03-02T13:49:49;17.10;99.90
29281;DHT22;25048;49.590;11.026;2024-03-02T13:52:16;17.00;99.90
29281;DHT22;25048;49.590;11.026;2024-03-02T13:54:45;16.80;99.90
29281;DHT22;25048;49.590;11.026;2024-03-02T13:57:14;17.00;99.90
29281;DHT22;25048;49.590;11.026;2024-03-02T13:59:43;17.30;99.90
29281;DHT22;25048;49.590;11.026;2024-03-02T14:02:11;17.70;99.90
29281;DHT22;25048;49.590;11.026;2024-03-02T14:04:39;17.70;99.90
29281;DHT22;25048;49.590;11.026;2024-03-02T14:07:07;17.50;99.90
29281;DHT22;25048;49.590;11.026;2024-03-02T14:09:34;17.40;99.90
29281;DHT22;25048;49.590;11.026;2024-03-02T14:12:03;17.10;99.90
29281;DHT22;25048;49.590;11.026;2024-03-02T14:14:31;16.90;99.90
29281;DHT22;25048;49.590;11.026;2024-03-02T14:16:59;16.60;99.90
29281;DHT22;25048;49.590;11.026;2024-03-02T14:19:29;16.60;99.90
29281;DHT22;25048;49.590;11.026;2024-03-02T14:21:57;16.60;99.90
29281;DHT22;25048;49.590;11.026;2024-03-02T14:24:24;16.70;99.90
29281;DHT22;25048;49.590;11.026;2024-03-02T14:26:53;17.00;99.90
29281;DHT22;25048;49.590;11.026;2024-03-02T14:29:20;17.00;99.90
29281;DHT22;25048;49.590;11.026;2024-03-02T14:31:48;17.10;99.90
29281;DHT22;25048;49.590;11.026;2024-03-02T14:34:16;17.20;99.90
29281;DHT22;25048;49.590;11.026;2024-03-02T14:36:43;17.00;99.90
29281;DHT22;25048;49.590;11.026;2024-03-02T14:39:11;17.00;99.90
29281;DHT22;25048;49.590;11.026;2024-03-02T14:41:39;17.10;99.90
29281;DHT22;25048;49.590;11.026;2024-03-02T14:44:06;17.00;99.90
29281;DHT22;25048;49.590;11.026;2024-03-02T14:46:34;16.90;99.90
29281;DHT22;25048;49.590;11.026;2024-03-02T14:49:01;17.00;99.90
29281;DHT22;25048;49.590;11.026;2024-03-02T14:51:29;17.10;99.90
29281;DHT22;25048;49.590;11.026;2024-03-02T14:53:56;16.90;99.90
29281;DHT22;25048;49.590;11.026;2024-03-02T14:56:24;17.20;99.90
29281;DHT22;25048;49.590;11.026;2024-03-02T14:58:51;17.20;99.90
29281;DHT22;25048;49.590;11.026;2024-03-02T15:01:20;17.20;99.90
29281;DHT22;25048;49.590;11.026;2024-03-02T15:03:51;16.90;99.90
29281;DHT22;25048;49.590;11.026;2024-03-02T15:06:18;17.00;99.90
29281;DHT22;25048;49.590;11.026;2024-03-02T15:08:46;17.00;99.90
29281;DHT22;25048;49.590;11.026;2024-03-02T15:11:14;16.80;99.90
29281;DHT22;25048;49.590;11.026;2024-03-02T15:13:42;16.60;99.90
29281;DHT22;25048;49.590;11.026;2024-03-02T15:16:10;16.50;99.90
29281;DHT22;25048;49.590;11.026;2024-03-02T15:18:37;16.30;99.90
29281;DHT22;25048;49.590;11.026;2024-03-02T15:21:05;16.10;99.90
29281;DHT22;25048;49.590;11.026;2024-03-02T15:23:33;15.80;99.90
29281;DHT22;25048;49.590;11.026;2024-03-02T15:26:00;15.70;99.90
29281;DHT22;25048;49.590;11.026;2024-03-02T15:28:28;15.70;99.90
29281;DHT22;25048;49.590;11.026;2024-03-02T15:30:55;15.70;99.90
29281;DHT22;25048;49.590;11.026;2024-03-02T15:33:23;15.60;99.90
29281;DHT22;25048;49.590;11.026;2024-03-02T15:35:52;15.90;99.90